Time;durP1;ratioP1;P1;durP2;ratioP2;P2;SDS_P1;SDS_P2;PMS_P1;PMS_P2;Temp;Humidity;BMP_temperature;BMP_pressure;BME280_temperature;BME280_humidity;BME280_pressure;Samples;Min_cycle;Max_cycle;Signal;HPM_P1;HPM_P2
2022/07/01 00:02:06;;;;;;;10.90;5.80;;;17.40;82.40;;;;;;5041134;28;20204;-90
2022/07/01 00:04:41;;;;;;;12.97;5.47;;;17.30;82.20;;;;;;5037890;28;20212;-90
2022/07/01 00:07:10;;;;;;;14.13;6.37;;;17.30;82.60;;;;;;5047842;28;20207;-89
2022/07/01 00:09:39;;;;;;;8.50;4.87;;;17.30;82.30;;;;;;5049290;28;20270;-89
2022/07/01 00:12:08;;;;;;;12.83;6.00;;;17.20;82.20;;;;;;5046030;28;20292;-89
2022/07/01 00:14:36;;;;;;;13.70;5.43;;;17.20;82.40;;;;;;5047152;28;20210;-89
2022/07/01 00:17:03;;;;;;;10.77;5.27;;;17.20;82.30;;;;;;5046088;28;20250;-89
2022/07/01 00:19:32;;;;;;;10.77;5.10;;;17.20;82.70;;;;;;5047976;28;20222;-89
2022/07/01 00:22:00;;;;;;;10.20;5.10;;;17.20;82.90;;;;;;5048864;28;20212;-89
2022/07/01 00:24:28;;;;;;;9.27;4.83;;;17.20;82.80;;;;;;5036291;28;20209;-89
2022/07/01 00:26:55;;;;;;;14.60;6.03;;;17.20;83.00;;;;;;5035292;28;20243;-89
2022/07/01 00:29:26;;;;;;;12.80;5.80;;;17.10;82.70;;;;;;5047823;28;20204;-89
2022/07/01 00:31:53;;;;;;;10.47;4.93;;;17.10;82.70;;;;;;5046246;28;20222;-89
2022/07/01 00:34:21;;;;;;;11.30;5.13;;;17.10;82.50;;;;;;5046561;28;20615;-90
2022/07/01 00:36:50;;;;;;;9.03;4.57;;;17.10;82.60;;;;;;5043143;28;20632;-89
2022/07/01 00:39:17;;;;;;;17.03;6.40;;;17.10;82.60;;;;;;5045107;28;20255;-90
2022/07/01 00:41:44;;;;;;;11.47;4.77;;;17.10;82.30;;;;;;5048118;28;20280;-90
2022/07/01 00:44:17;;;;;;;14.50;5.77;;;17.10;82.40;;;;;;5047570;28;20196;-89
2022/07/01 00:46:49;;;;;;;8.87;4.33;;;17.00;82.70;;;;;;5039350;28;20683;-89
2022/07/01 00:49:17;;;;;;;10.77;4.87;;;17.00;82.70;;;;;;5045893;28;20291;-89
2022/07/01 00:51:45;;;;;;;8.57;4.50;;;17.00;82.50;;;;;;5047977;28;20232;-89
2022/07/01 00:54:19;;;;;;;10.80;4.43;;;16.90;82.40;;;;;;5046914;28;20188;-89
2022/07/01 00:56:48;;;;;;;15.47;5.77;;;16.90;82.90;;;;;;5046835;28;20204;-89
2022/07/01 00:59:19;;;;;;;11.23;5.50;;;16.90;82.80;;;;;;5038032;28;20663;-89
2022/07/01 01:01:48;;;;;;;8.97;4.47;;;16.80;82.90;;;;;;5040909;28;20299;-89
2022/07/01 01:04:15;;;;;;;10.70;4.70;;;16.80;82.80;;;;;;5047076;28;20204;-89
2022/07/01 01:06:43;;;;;;;11.50;5.57;;;16.80;82.70;;;;;;5047160;28;20229;-89
2022/07/01 01:09:12;;;;;;;17.93;6.73;;;16.70;82.70;;;;;;5045833;28;20208;-90
2022/07/01 01:11:40;;;;;;;15.60;6.07;;;16.70;83.00;;;;;;5041310;28;20305;-89
2022/07/01 01:14:08;;;;;;;13.23;5.00;;;16.70;83.00;;;;;;5047105;28;20242;-88
2022/07/01 01:16:37;;;;;;;15.53;6.67;;;16.70;82.90;;;;;;5044805;28;20301;-89
2022/07/01 01:19:07;;;;;;;25.30;8.70;;;16.60;82.90;;;;;;5040206;28;20227;-89
2022/07/01 01:21:36;;;;;;;13.00;5.50;;;16.60;83.20;;;;;;5041235;28;20214;-89
2022/07/01 01:24:03;;;;;;;11.03;4.83;;;16.60;83.10;;;;;;5058837;28;20250;-89
2022/07/01 01:26:32;;;;;;;17.43;7.17;;;16.60;83.00;;;;;;5042060;28;20215;-89
2022/07/01 01:28:59;;;;;;;16.20;5.93;;;16.60;83.10;;;;;;5045077;28;20707;-89
2022/07/01 01:31:30;;;;;;;8.80;4.47;;;16.60;83.00;;;;;;5046399;28;20223;-90
2022/07/01 01:34:00;;;;;;;15.30;5.97;;;16.60;83.20;;;;;;5046241;28;20588;-90
2022/07/01 01:36:27;;;;;;;11.07;4.23;;;16.50;83.10;;;;;;5047727;28;20214;-90
2022/07/01 01:38:56;;;;;;;10.40;4.53;;;16.50;83.00;;;;;;5047612;28;20207;-91
2022/07/01 01:41:23;;;;;;;8.50;4.37;;;16.50;83.10;;;;;;5028247;28;20315;-90
2022/07/01 01:43:50;;;;;;;7.00;4.30;;;16.50;83.00;;;;;;5048323;28;20554;-90
2022/07/01 01:46:18;;;;;;;13.80;4.60;;;16.50;83.00;;;;;;5048257;28;20310;-90
2022/07/01 01:48:45;;;;;;;11.53;4.43;;;16.40;83.10;;;;;;5046876;28;20258;-89
2022/07/01 01:51:12;;;;;;;11.93;5.20;;;16.40;83.20;;;;;;5046161;28;20239;-90
2022/07/01 01:53:40;;;;;;;13.10;5.43;;;16.40;83.40;;;;;;5044089;28;21275;-89
2022/07/01 01:56:09;;;;;;;10.43;4.37;;;16.40;83.70;;;;;;5045798;28;21113;-90
2022/07/01 01:58:42;;;;;;;11.90;5.50;;;16.40;83.60;;;;;;5044083;28;20215;-89
2022/07/01 02:01:10;;;;;;;18.60;6.83;;;16.40;83.50;;;;;;5043135;28;20257;-90
2022/07/01 02:03:38;;;;;;;11.43;4.70;;;16.40;83.70;;;;;;5047532;28;20231;-89
2022/07/01 02:06:06;;;;;;;17.03;5.90;;;16.40;83.90;;;;;;5041550;28;20208;-89
2022/07/01 02:08:34;;;;;;;15.03;5.83;;;16.30;83.50;;;;;;5039949;28;20626;-89
2022/07/01 02:11:01;;;;;;;14.03;5.20;;;16.30;83.90;;;;;;5044684;28;20269;-90
2022/07/01 02:13:30;;;;;;;12.83;4.83;;;16.30;83.90;;;;;;5036282;28;20238;-90
2022/07/01 02:15:57;;;;;;;11.33;4.87;;;16.30;83.90;;;;;;5040207;28;20228;-89
2022/07/01 02:18:25;;;;;;;10.43;5.00;;;16.30;83.90;;;;;;5026452;28;20265;-90
2022/07/01 02:20:52;;;;;;;12.17;5.30;;;16.20;83.80;;;;;;5043561;28;20620;-89
2022/07/01 02:23:19;;;;;;;20.37;7.50;;;16.30;83.90;;;;;;5033282;28;20228;-90
2022/07/01 02:25:50;;;;;;;11.67;5.37;;;16.20;83.80;;;;;;5051598;28;20227;-90
2022/07/01 02:28:18;;;;;;;21.13;7.67;;;16.20;84.00;;;;;;5051259;28;20205;-89
2022/07/01 02:30:47;;;;;;;14.60;6.37;;;16.20;84.00;;;;;;5048771;28;21020;-90
2022/07/01 02:33:16;;;;;;;18.23;6.57;;;16.20;84.20;;;;;;5046988;28;20286;-89
2022/07/01 02:35:44;;;;;;;11.17;4.17;;;16.20;84.50;;;;;;5050871;28;20216;-89
2022/07/01 02:38:11;;;;;;;16.97;6.17;;;16.20;84.30;;;;;;5049793;28;20236;-90
2022/07/01 02:40:39;;;;;;;24.07;7.10;;;16.10;84.10;;;;;;5048136;28;20249;-89
2022/07/01 02:43:06;;;;;;;20.73;7.30;;;16.20;84.10;;;;;;5047232;28;20666;-90
2022/07/01 02:45:34;;;;;;;16.33;5.80;;;16.10;83.90;;;;;;5047712;28;20195;-89
2022/07/01 02:48:02;;;;;;;13.50;4.33;;;16.10;84.10;;;;;;5049036;28;20202;-90
2022/07/01 02:50:29;;;;;;;13.00;4.60;;;16.10;84.20;;;;;;5049677;28;20349;-89
2022/07/01 02:53:01;;;;;;;19.33;6.03;;;16.10;84.00;;;;;;5049928;28;20305;-90
2022/07/01 02:55:29;;;;;;;21.03;6.57;;;16.10;84.40;;;;;;5046976;28;20204;-90
2022/07/01 02:57:57;;;;;;;12.57;5.00;;;16.10;84.30;;;;;;5051244;28;20676;-89
2022/07/01 03:00:25;;;;;;;14.77;5.77;;;16.10;84.50;;;;;;5045907;28;20259;-90
2022/07/01 03:02:53;;;;;;;12.63;4.73;;;16.00;84.60;;;;;;5046917;28;20216;-89
2022/07/01 03:05:21;;;;;;;10.80;4.90;;;16.00;84.40;;;;;;5051959;28;20290;-89
2022/07/01 03:07:48;;;;;;;13.77;5.37;;;16.00;84.60;;;;;;5047760;28;20682;-88
2022/07/01 03:10:17;;;;;;;18.90;5.83;;;16.00;84.50;;;;;;5050196;28;20234;-90
2022/07/01 03:12:45;;;;;;;19.30;6.53;;;16.00;84.70;;;;;;5043151;28;20772;-90
2022/07/01 03:15:14;;;;;;;13.77;5.23;;;16.00;84.80;;;;;;5042996;28;20668;-90
2022/07/01 03:17:44;;;;;;;18.77;5.87;;;16.00;84.90;;;;;;5047905;28;20624;-89
2022/07/01 03:20:16;;;;;;;14.77;4.63;;;15.90;85.20;;;;;;5045741;28;20658;-89
2022/07/01 03:22:47;;;;;;;12.80;4.60;;;15.90;85.00;;;;;;5048369;28;20216;-90
2022/07/01 03:25:14;;;;;;;24.07;7.87;;;15.90;84.90;;;;;;5049311;28;20200;-90
2022/07/01 03:27:45;;;;;;;21.77;7.37;;;15.90;84.70;;;;;;5040824;28;20208;-89
2022/07/01 03:30:14;;;;;;;15.17;5.33;;;15.90;84.70;;;;;;5039061;28;20211;-89
2022/07/01 03:32:41;;;;;;;19.30;6.27;;;15.90;84.70;;;;;;5047168;28;20202;-89
2022/07/01 03:37:51;;;;;;;21.90;7.10;;;15.90;84.80;;;;;;5045039;28;20599;-89
2022/07/01 03:40:20;;;;;;;16.60;5.57;;;15.80;84.50;;;;;;5029843;28;20731;-88
2022/07/01 03:42:48;;;;;;;22.13;6.77;;;15.80;84.40;;;;;;5046091;28;20576;-88
2022/07/01 03:45:17;;;;;;;19.70;6.47;;;15.80;84.30;;;;;;5039830;28;20201;-88
2022/07/01 03:47:47;;;;;;;12.03;4.20;;;15.80;84.40;;;;;;5043652;28;20242;-89
2022/07/01 03:50:14;;;;;;;11.93;3.90;;;15.80;84.30;;;;;;5049341;28;20209;-87
2022/07/01 03:52:42;;;;;;;22.33;6.03;;;15.80;84.20;;;;;;5043359;28;20233;-89
2022/07/01 03:55:10;;;;;;;25.27;6.93;;;15.80;84.40;;;;;;5045369;28;20278;-89
2022/07/01 03:57:38;;;;;;;18.97;6.50;;;15.70;84.40;;;;;;5038471;28;20202;-89
2022/07/01 04:00:07;;;;;;;18.70;6.40;;;15.70;84.30;;;;;;5036574;28;20742;-89
2022/07/01 04:02:35;;;;;;;17.57;6.13;;;15.70;84.50;;;;;;5045929;28;20207;-89
2022/07/01 04:05:02;;;;;;;12.97;4.23;;;15.70;84.60;;;;;;5047797;28;20222;-90
2022/07/01 04:07:29;;;;;;;11.70;4.50;;;15.70;84.60;;;;;;5047634;28;20292;-89
2022/07/01 04:09:57;;;;;;;20.07;6.77;;;15.70;84.70;;;;;;5048123;28;20861;-88
2022/07/01 04:12:30;;;;;;;12.03;4.20;;;15.60;84.70;;;;;;5046407;28;20334;-89
2022/07/01 04:14:58;;;;;;;16.40;5.50;;;15.60;85.10;;;;;;5045689;28;20563;-90
2022/07/01 04:17:25;;;;;;;15.83;5.23;;;15.60;85.00;;;;;;5028250;28;20204;-89
2022/07/01 04:19:55;;;;;;;14.17;5.33;;;15.60;85.00;;;;;;5034065;28;20234;-88
2022/07/01 04:22:33;;;;;;;14.83;5.37;;;15.60;85.00;;;;;;5047827;28;20211;-89
2022/07/01 04:25:00;;;;;;;15.13;5.13;;;15.60;85.30;;;;;;5046063;28;20210;-89
2022/07/01 04:27:29;;;;;;;22.50;6.03;;;15.60;85.70;;;;;;5045426;28;20325;-90
2022/07/01 04:29:56;;;;;;;16.07;6.30;;;15.60;85.80;;;;;;5007087;28;1188863;-89
2022/07/01 04:32:23;;;;;;;12.43;4.60;;;15.60;85.70;;;;;;5046278;28;20237;-89
2022/07/01 04:34:51;;;;;;;10.40;4.63;;;15.60;85.90;;;;;;5050299;28;20298;-89
2022/07/01 04:37:19;;;;;;;13.37;4.97;;;15.60;85.80;;;;;;5049279;28;20722;-89
2022/07/01 04:39:47;;;;;;;10.97;4.70;;;15.60;85.80;;;;;;5049598;28;20253;-90
2022/07/01 04:42:20;;;;;;;17.77;5.60;;;15.60;85.80;;;;;;5034984;28;20838;-89
2022/07/01 04:44:48;;;;;;;13.33;4.50;;;15.60;86.20;;;;;;5029214;28;20206;-89
2022/07/01 04:47:17;;;;;;;13.30;4.23;;;15.60;86.10;;;;;;5044993;28;20211;-89
2022/07/01 04:49:48;;;;;;;12.00;4.27;;;15.60;86.40;;;;;;5031277;28;20205;-88
2022/07/01 04:52:15;;;;;;;16.80;5.33;;;15.50;86.70;;;;;;5044587;28;20281;-89
2022/07/01 04:54:42;;;;;;;10.33;4.13;;;15.60;86.70;;;;;;5047748;28;20204;-89
2022/07/01 04:57:10;;;;;;;13.17;4.77;;;15.60;86.70;;;;;;5031658;28;20273;-89
2022/07/01 04:59:37;;;;;;;13.27;4.73;;;15.60;86.90;;;;;;5048169;28;20245;-89
2022/07/01 05:02:08;;;;;;;8.47;4.07;;;15.60;86.90;;;;;;5050609;28;20330;-88
2022/07/01 05:04:36;;;;;;;11.57;4.80;;;15.60;87.10;;;;;;5021141;28;20207;-90
2022/07/01 05:07:04;;;;;;;17.87;5.47;;;15.70;87.30;;;;;;5015281;28;20229;-89
2022/07/01 05:09:33;;;;;;;16.43;4.93;;;15.60;87.20;;;;;;5049085;28;20203;-89
2022/07/01 05:12:02;;;;;;;10.30;4.03;;;15.70;87.60;;;;;;5048263;28;20305;-88
2022/07/01 05:14:29;;;;;;;18.07;6.50;;;15.70;87.70;;;;;;5047596;28;20208;-88
2022/07/01 05:16:56;;;;;;;13.40;4.60;;;15.70;87.60;;;;;;5038179;28;20307;-88
2022/07/01 05:22:09;;;;;;;20.00;5.70;;;15.80;88.10;;;;;;5058577;28;20621;-89
2022/07/01 05:24:36;;;;;;;15.50;5.33;;;15.80;87.80;;;;;;5054887;28;20239;-88
2022/07/01 05:27:04;;;;;;;17.57;5.60;;;15.80;88.00;;;;;;5053672;28;20258;-88
2022/07/01 05:29:31;;;;;;;11.83;4.37;;;15.80;88.20;;;;;;5043430;28;20193;-89
2022/07/01 05:32:01;;;;;;;12.33;4.63;;;15.90;88.40;;;;;;5041844;28;20230;-89
2022/07/01 05:34:30;;;;;;;25.40;7.13;;;15.90;88.80;;;;;;5054206;28;20260;-88
2022/07/01 05:36:57;;;;;;;11.43;4.53;;;15.90;88.80;;;;;;5055992;28;20214;-89
2022/07/01 05:39:25;;;;;;;19.23;6.17;;;15.90;88.50;;;;;;5055675;28;20206;-88
2022/07/01 05:41:54;;;;;;;11.03;4.03;;;16.00;88.60;;;;;;5049826;28;20220;-89
2022/07/01 05:44:21;;;;;;;11.10;4.27;;;16.00;88.60;;;;;;5058682;28;20248;-88
2022/07/01 05:46:49;;;;;;;22.70;6.10;;;16.10;88.70;;;;;;5058602;28;20229;-90
2022/07/01 05:49:17;;;;;;;16.50;5.40;;;16.10;89.00;;;;;;5049099;28;20670;-88
2022/07/01 05:51:46;;;;;;;15.73;3.83;;;16.10;89.00;;;;;;5048148;28;20703;-88
2022/07/01 05:54:13;;;;;;;15.70;4.37;;;16.20;89.10;;;;;;5048462;28;20948;-88
2022/07/01 05:56:41;;;;;;;9.50;3.97;;;16.20;88.90;;;;;;5050690;28;20893;-89
2022/07/01 05:59:08;;;;;;;12.57;3.93;;;16.30;89.20;;;;;;5051727;28;20203;-90
2022/07/01 06:01:35;;;;;;;13.43;4.40;;;16.30;89.00;;;;;;5049926;28;20635;-89
2022/07/01 06:04:03;;;;;;;15.73;4.57;;;16.40;89.00;;;;;;5051163;28;20667;-89
2022/07/01 06:06:33;;;;;;;16.13;5.53;;;16.40;89.00;;;;;;5040582;28;20196;-87
2022/07/01 06:09:01;;;;;;;17.23;4.60;;;16.40;88.90;;;;;;5046335;28;20422;-88
2022/07/01 06:11:29;;;;;;;15.67;4.57;;;16.50;88.70;;;;;;5045101;28;20210;-88
2022/07/01 06:13:56;;;;;;;16.17;5.13;;;16.60;88.80;;;;;;5047547;28;20207;-89
2022/07/01 06:16:27;;;;;;;18.13;5.10;;;16.60;88.30;;;;;;5045176;28;20566;-90
2022/07/01 06:18:55;;;;;;;18.53;5.23;;;16.70;88.30;;;;;;5047516;28;21155;-88
2022/07/01 06:21:22;;;;;;;13.50;4.40;;;16.70;87.80;;;;;;5045095;28;20865;-90
2022/07/01 06:23:49;;;;;;;24.43;7.03;;;16.70;87.80;;;;;;5047736;28;21312;-88
2022/07/01 06:26:28;;;;;;;13.53;4.63;;;16.80;88.30;;;;;;5047003;28;20208;-89
2022/07/01 06:28:55;;;;;;;16.27;4.33;;;16.80;88.30;;;;;;5045979;28;20205;-90
2022/07/01 06:31:23;;;;;;;14.67;4.73;;;16.90;88.10;;;;;;5047674;28;20244;-89
2022/07/01 06:33:51;;;;;;;19.43;5.73;;;17.00;88.20;;;;;;5042738;28;20281;-90
2022/07/01 06:36:18;;;;;;;12.67;3.77;;;17.00;88.20;;;;;;5048530;28;20204;-89
2022/07/01 06:38:48;;;;;;;18.63;5.50;;;17.10;88.20;;;;;;5044125;28;20613;-89
2022/07/01 06:41:27;;;;;;;12.97;4.23;;;17.10;87.80;;;;;;5045955;28;20311;-86
2022/07/01 06:44:00;;;;;;;8.43;3.30;;;17.10;87.40;;;;;;5049571;28;20214;-87
2022/07/01 06:46:29;;;;;;;12.00;2.97;;;17.20;87.10;;;;;;5047505;28;20196;-89
2022/07/01 06:48:57;;;;;;;14.00;3.97;;;17.30;87.60;;;;;;5048340;28;20290;-89
2022/07/01 06:51:25;;;;;;;16.10;5.10;;;17.30;86.70;;;;;;5031241;28;20208;-87
2022/07/01 06:53:54;;;;;;;18.57;5.13;;;17.40;86.60;;;;;;5054377;28;20189;-89
2022/07/01 06:56:21;;;;;;;13.47;4.43;;;17.40;86.60;;;;;;5055008;28;20366;-90
2022/07/01 06:58:51;;;;;;;12.03;3.33;;;17.50;86.20;;;;;;5047284;28;20216;-89
2022/07/01 07:01:23;;;;;;;18.80;5.60;;;17.50;86.10;;;;;;5052699;28;20866;-91
2022/07/01 07:03:50;;;;;;;12.77;4.23;;;17.50;85.70;;;;;;5047533;28;20203;-88
2022/07/01 07:06:18;;;;;;;9.30;3.50;;;17.60;86.20;;;;;;5048529;28;20192;-88
2022/07/01 07:08:47;;;;;;;13.30;4.17;;;17.70;86.10;;;;;;5034881;28;20311;-89
2022/07/01 07:11:14;;;;;;;12.77;3.63;;;17.70;85.70;;;;;;5038782;28;20204;-90
2022/07/01 07:13:43;;;;;;;15.60;4.33;;;17.70;85.60;;;;;;5049931;28;20220;-89
2022/07/01 07:16:20;;;;;;;13.70;4.23;;;17.80;85.50;;;;;;5045129;28;20307;-90
2022/07/01 07:19:01;;;;;;;14.63;3.93;;;17.90;85.60;;;;;;5039400;28;20209;-89
2022/07/01 07:21:28;;;;;;;11.20;3.63;;;17.90;85.40;;;;;;5048063;28;20336;-89
2022/07/01 07:23:56;;;;;;;16.70;4.47;;;17.90;85.60;;;;;;5045419;28;20289;-88
2022/07/01 07:26:23;;;;;;;10.73;3.50;;;18.00;84.40;;;;;;5047751;28;20286;-88
2022/07/01 07:28:52;;;;;;;13.53;4.27;;;18.00;83.80;;;;;;5048666;28;20209;-90
2022/07/01 07:31:19;;;;;;;10.73;3.87;;;18.10;84.00;;;;;;5049633;28;20255;-88
2022/07/01 07:33:47;;;;;;;9.93;3.33;;;18.20;83.90;;;;;;5047256;28;20243;-94
2022/07/01 07:36:16;;;;;;;11.03;3.53;;;18.20;82.70;;;;;;5050309;28;20229;-89
2022/07/01 07:38:43;;;;;;;14.20;4.27;;;18.30;81.80;;;;;;5050169;28;20223;-90
2022/07/01 07:41:16;;;;;;;13.90;3.80;;;18.30;81.90;;;;;;5050712;28;20209;-91
2022/07/01 07:43:44;;;;;;;9.53;3.50;;;18.40;82.20;;;;;;5034477;28;20242;-91
2022/07/01 07:46:11;;;;;;;13.30;4.60;;;18.40;82.00;;;;;;5033486;28;20237;-91
2022/07/01 07:48:39;;;;;;;7.00;2.50;;;18.50;81.80;;;;;;5049532;28;20302;-91
2022/07/01 07:51:06;;;;;;;11.53;3.10;;;18.60;80.30;;;;;;5050331;28;20207;-93
2022/07/01 07:53:35;;;;;;;15.30;4.03;;;18.60;79.20;;;;;;5050775;28;20303;-90
2022/07/01 07:56:02;;;;;;;10.23;3.37;;;18.70;78.70;;;;;;5044513;28;20222;-91
2022/07/01 07:58:29;;;;;;;18.40;5.47;;;18.70;79.10;;;;;;5047527;28;20250;-91
2022/07/01 08:00:56;;;;;;;10.10;3.80;;;18.80;78.80;;;;;;5049508;28;20250;-89
2022/07/01 08:03:24;;;;;;;11.60;3.53;;;18.90;77.60;;;;;;5049650;28;20615;-90
2022/07/01 08:05:53;;;;;;;7.43;2.83;;;18.90;77.60;;;;;;5050858;28;20556;-90
2022/07/01 08:08:21;;;;;;;10.17;3.07;;;19.00;78.70;;;;;;5051098;28;20203;-91
2022/07/01 08:10:50;;;;;;;9.57;2.57;;;19.00;77.50;;;;;;5052460;28;20280;-90
2022/07/01 08:13:17;;;;;;;15.83;4.57;;;19.10;77.10;;;;;;5046755;28;20210;-90
2022/07/01 08:15:45;;;;;;;4.97;1.83;;;19.10;77.30;;;;;;5051020;28;20211;-91
2022/07/01 08:18:16;;;;;;;7.77;2.63;;;19.10;76.00;;;;;;5049152;28;20283;-92
2022/07/01 08:20:43;;;;;;;10.97;3.10;;;19.20;76.10;;;;;;5044265;28;20213;-91
2022/07/01 08:23:11;;;;;;;10.80;3.33;;;19.30;76.30;;;;;;5048972;28;20254;-90
2022/07/01 08:25:38;;;;;;;11.93;3.97;;;19.30;74.40;;;;;;5026871;28;20927;-91
2022/07/01 08:28:06;;;;;;;10.07;3.30;;;19.40;74.60;;;;;;5049962;28;20246;-89
2022/07/01 08:30:33;;;;;;;11.17;3.40;;;19.40;72.30;;;;;;5049131;28;20215;-92
2022/07/01 08:33:01;;;;;;;9.57;2.93;;;19.50;72.80;;;;;;5048884;28;20296;-89
2022/07/01 08:35:28;;;;;;;9.33;3.00;;;19.50;73.10;;;;;;5049127;28;20230;-91
2022/07/01 08:37:57;;;;;;;8.20;2.97;;;19.60;72.80;;;;;;5048160;28;20211;-90
2022/07/01 08:40:26;;;;;;;9.43;3.27;;;19.70;73.00;;;;;;5048713;28;20202;-91
2022/07/01 08:42:57;;;;;;;9.60;2.40;;;19.70;73.80;;;;;;5051210;28;20214;-91
2022/07/01 08:45:26;;;;;;;10.40;3.40;;;19.90;73.20;;;;;;5050320;28;20218;-90
2022/07/01 08:47:57;;;;;;;6.50;2.47;;;20.00;72.60;;;;;;5052022;28;20295;-93
2022/07/01 08:50:25;;;;;;;9.27;2.57;;;20.10;72.80;;;;;;5050875;28;20204;-93
2022/07/01 08:52:53;;;;;;;8.27;2.03;;;20.20;72.50;;;;;;5050907;28;20580;-92
2022/07/01 08:55:23;;;;;;;11.83;4.27;;;20.30;72.20;;;;;;5045716;28;20230;-92
2022/07/01 08:57:50;;;;;;;12.17;3.93;;;20.40;72.10;;;;;;5051653;28;20199;-90
2022/07/01 09:00:23;;;;;;;11.17;4.17;;;20.50;72.00;;;;;;5049959;28;20543;-92
2022/07/01 09:02:57;;;;;;;12.20;4.03;;;20.60;70.50;;;;;;5045717;28;20252;-93
2022/07/01 09:05:26;;;;;;;13.40;4.67;;;20.70;70.00;;;;;;5041756;28;20207;-91
2022/07/01 09:07:58;;;;;;;12.70;4.47;;;20.80;69.50;;;;;;5038075;28;20204;-90
2022/07/01 09:10:26;;;;;;;11.27;4.17;;;20.90;68.90;;;;;;5035558;28;20211;-89
2022/07/01 09:12:53;;;;;;;13.27;4.60;;;21.00;69.80;;;;;;5039354;28;20235;-91
2022/07/01 09:15:24;;;;;;;10.60;3.17;;;21.10;69.20;;;;;;5041105;28;20202;-92
2022/07/01 09:17:52;;;;;;;8.90;3.20;;;21.10;68.90;;;;;;5038485;28;20701;-91
2022/07/01 09:20:36;;;;;;;8.53;3.13;;;21.30;69.40;;;;;;5037131;28;20208;-91
2022/07/01 09:23:07;;;;;;;5.67;2.70;;;21.40;67.20;;;;;;5039456;28;20204;-91
2022/07/01 09:25:39;;;;;;;12.97;4.47;;;21.50;67.70;;;;;;5040817;28;20737;-92
2022/07/01 09:28:09;;;;;;;8.23;3.00;;;21.70;67.80;;;;;;5040638;28;20265;-92
2022/07/01 09:30:37;;;;;;;14.30;4.60;;;21.70;67.60;;;;;;5039796;28;20297;-92
2022/07/01 09:33:09;;;;;;;12.90;4.93;;;21.90;67.80;;;;;;5041049;28;20274;-93
2022/07/01 09:35:39;;;;;;;14.50;4.60;;;22.00;66.10;;;;;;5041188;28;20204;-93
2022/07/01 09:38:08;;;;;;;14.00;4.67;;;22.20;67.20;;;;;;5040633;28;20239;-92
2022/07/01 09:40:52;;;;;;;8.80;3.07;;;22.30;65.70;;;;;;5042347;28;20767;-91
2022/07/01 09:43:21;;;;;;;12.03;4.47;;;22.40;65.70;;;;;;5038997;28;20201;-91
2022/07/01 09:45:58;;;;;;;11.07;4.13;;;22.50;66.40;;;;;;5042757;28;20289;-92
2022/07/01 09:48:27;;;;;;;7.33;2.57;;;22.50;65.60;;;;;;5040128;28;20257;-89
2022/07/01 09:50:55;;;;;;;7.40;2.53;;;22.60;65.20;;;;;;5043747;28;20567;-90
2022/07/01 09:53:28;;;;;;;10.00;3.23;;;22.70;64.40;;;;;;5048215;28;20227;-93
2022/07/01 09:55:56;;;;;;;8.33;3.33;;;22.70;63.80;;;;;;5041316;28;20204;-92
2022/07/01 09:58:23;;;;;;;13.67;4.90;;;22.80;63.40;;;;;;5042376;28;20200;-92
2022/07/01 10:00:52;;;;;;;12.50;3.70;;;22.80;63.50;;;;;;5045548;28;20254;-92
2022/07/01 10:03:23;;;;;;;8.93;3.27;;;22.80;63.10;;;;;;5046045;28;20690;-92
2022/07/01 10:05:58;;;;;;;12.63;4.40;;;22.80;63.00;;;;;;5047325;28;20204;-91
2022/07/01 10:08:46;;;;;;;8.70;2.70;;;22.80;63.10;;;;;;5036043;28;20645;-93
2022/07/01 10:11:42;;;;;;;9.03;2.20;;;22.80;61.80;;;;;;5042994;28;20227;-94
2022/07/01 10:14:14;;;;;;;4.53;1.60;;;22.80;62.60;;;;;;5051373;28;20263;-92
2022/07/01 10:16:48;;;;;;;11.90;3.43;;;22.90;62.60;;;;;;5042716;28;20245;-93
2022/07/01 10:19:33;;;;;;;12.80;3.47;;;22.90;62.30;;;;;;5046442;28;20209;-92
2022/07/01 10:22:25;;;;;;;6.57;2.03;;;22.90;62.30;;;;;;5044990;28;20219;-92
2022/07/01 10:24:54;;;;;;;9.00;2.10;;;23.00;62.60;;;;;;5048854;28;20200;-92
2022/07/01 10:27:24;;;;;;;7.67;3.07;;;22.90;63.40;;;;;;5048419;28;20201;-92
2022/07/01 10:30:12;;;;;;;8.03;2.70;;;22.90;62.90;;;;;;5046627;28;20484;-91
2022/07/01 10:32:47;;;;;;;9.47;3.17;;;22.90;63.60;;;;;;5047844;28;20232;-90
2022/07/01 10:35:15;;;;;;;7.00;2.43;;;22.90;63.10;;;;;;5046683;28;20248;-91
2022/07/01 10:38:01;;;;;;;11.47;3.50;;;22.90;64.80;;;;;;5043918;28;20204;-90
2022/07/01 10:40:49;;;;;;;8.20;2.67;;;22.90;64.00;;;;;;5043560;28;20223;-91
2022/07/01 10:43:18;;;;;;;10.97;4.17;;;22.80;63.00;;;;;;5025499;28;20201;-90
2022/07/01 10:45:49;;;;;;;12.17;4.17;;;22.80;64.00;;;;;;5046749;28;20311;-91
2022/07/01 10:48:21;;;;;;;12.80;3.77;;;22.80;64.40;;;;;;5046774;28;20192;-89
2022/07/01 10:50:49;;;;;;;11.37;4.70;;;22.70;64.80;;;;;;5052250;28;20244;-90
2022/07/01 10:53:20;;;;;;;11.13;4.03;;;22.70;65.50;;;;;;5051225;28;20240;-90
2022/07/01 10:55:49;;;;;;;12.20;4.83;;;22.60;65.80;;;;;;5048059;28;20196;-92
2022/07/01 10:58:18;;;;;;;19.20;6.13;;;22.60;66.70;;;;;;5044490;28;20289;-93
2022/07/01 11:00:47;;;;;;;11.70;3.93;;;22.50;67.20;;;;;;5053888;28;20267;-92
2022/07/01 11:03:22;;;;;;;8.63;2.87;;;22.30;67.00;;;;;;5051255;28;20196;-91
2022/07/01 11:05:52;;;;;;;10.67;3.87;;;22.20;68.10;;;;;;5051803;28;20656;-91
2022/07/01 11:08:22;;;;;;;6.93;2.67;;;22.00;68.10;;;;;;5050919;28;20820;-96
2022/07/01 11:10:57;;;;;;;5.53;2.37;;;22.00;68.90;;;;;;5040031;28;20204;-92
2022/07/01 11:13:26;;;;;;;6.87;2.40;;;21.90;71.50;;;;;;5057823;28;20240;-91
2022/07/01 11:15:55;;;;;;;9.17;3.40;;;21.80;71.70;;;;;;5056522;28;20591;-91
2022/07/01 11:18:24;;;;;;;8.80;3.20;;;21.80;71.50;;;;;;5054670;28;20200;-90
2022/07/01 11:20:58;;;;;;;10.10;3.30;;;21.70;72.20;;;;;;5050770;28;20754;-91
2022/07/01 11:23:27;;;;;;;7.40;3.00;;;21.70;75.40;;;;;;5052053;28;20311;-90
2022/07/01 11:25:55;;;;;;;6.33;2.47;;;21.80;74.30;;;;;;5052183;28;20680;-91
2022/07/01 11:28:25;;;;;;;11.40;4.17;;;21.90;72.60;;;;;;5050961;28;20968;-92
2022/07/01 11:31:02;;;;;;;10.43;3.73;;;22.00;72.90;;;;;;5051552;28;20557;-90
2022/07/01 11:33:30;;;;;;;11.03;3.17;;;22.00;71.70;;;;;;5047688;28;20578;-90
2022/07/01 11:41:38;;;;;;;15.63;4.60;;;22.20;71.50;;;;;;5053688;28;20215;-91
2022/07/01 11:44:07;;;;;;;9.13;3.87;;;22.20;71.20;;;;;;5055149;28;20582;-91
2022/07/01 11:46:35;;;;;;;12.30;4.07;;;22.20;71.90;;;;;;5038833;28;20208;-91
2022/07/01 11:49:13;;;;;;;15.90;4.00;;;22.20;72.20;;;;;;5046627;28;20210;-91
2022/07/01 11:51:40;;;;;;;7.20;2.77;;;22.20;73.90;;;;;;5056198;28;20609;-91
2022/07/01 11:54:22;;;;;;;12.80;3.77;;;22.20;73.50;;;;;;5055038;28;20289;-91
2022/07/01 11:56:49;;;;;;;9.63;3.20;;;22.20;73.50;;;;;;5056538;28;20665;-90
2022/07/01 11:59:18;;;;;;;11.70;4.00;;;22.20;72.50;;;;;;5063021;28;20201;-91
2022/07/01 12:01:53;;;;;;;9.03;2.90;;;22.20;72.00;;;;;;5054756;28;20205;-91
2022/07/01 12:04:21;;;;;;;11.80;4.03;;;22.20;71.90;;;;;;5062895;28;20199;-90
2022/07/01 12:06:48;;;;;;;14.27;4.17;;;22.20;72.10;;;;;;5059385;28;20189;-91
2022/07/01 12:09:20;;;;;;;16.90;4.97;;;22.10;70.90;;;;;;5066487;28;20212;-90
2022/07/01 12:11:48;;;;;;;13.23;4.87;;;22.10;70.80;;;;;;5065877;28;20230;-92
2022/07/01 12:14:21;;;;;;;6.70;2.83;;;22.10;70.90;;;;;;5053613;28;20212;-91
2022/07/01 12:16:52;;;;;;;11.47;3.90;;;22.10;70.90;;;;;;5058217;28;20196;-91
2022/07/01 12:19:20;;;;;;;10.93;3.60;;;22.00;70.20;;;;;;5068272;28;20512;-92
2022/07/01 12:21:53;;;;;;;12.07;3.47;;;21.90;70.10;;;;;;5058997;28;20226;-93
2022/07/01 12:24:22;;;;;;;15.47;4.33;;;21.90;70.10;;;;;;5062226;28;20211;-93
2022/07/01 12:26:53;;;;;;;13.77;3.83;;;21.80;69.80;;;;;;5055033;28;20236;-92
2022/07/01 12:29:22;;;;;;;11.30;3.90;;;21.80;70.10;;;;;;5052041;28;20254;-94
2022/07/01 12:31:57;;;;;;;7.87;3.40;;;21.70;70.30;;;;;;5053827;28;20212;-93
2022/07/01 12:34:38;;;;;;;9.20;4.37;;;21.70;70.70;;;;;;5045981;28;20273;-93
2022/07/01 12:37:30;;;;;;;13.47;4.80;;;21.60;71.00;;;;;;5052123;28;20209;-93
2022/07/01 12:40:06;;;;;;;10.87;4.20;;;21.50;71.70;;;;;;5043921;28;20211;-93
2022/07/01 12:42:38;;;;;;;14.47;5.40;;;21.50;72.50;;;;;;5052036;28;20230;-92
2022/07/01 12:45:08;;;;;;;13.13;4.93;;;21.40;73.70;;;;;;5051103;28;20211;-92
2022/07/01 12:47:36;;;;;;;16.43;5.43;;;21.40;74.40;;;;;;5049603;28;20261;-91
2022/07/01 12:50:11;;;;;;;10.80;4.23;;;21.30;76.10;;;;;;5031949;28;20792;-91
2022/07/01 12:53:13;;;;;;;13.87;4.40;;;21.30;79.50;;;;;;5048002;28;20242;-91
2022/07/01 12:56:03;;;;;;;9.57;3.67;;;21.30;76.20;;;;;;5047249;28;20574;-90
2022/07/01 12:58:30;;;;;;;17.27;3.57;;;21.40;77.00;;;;;;5052603;28;20219;-90
2022/07/01 13:00:59;;;;;;;11.97;4.83;;;21.40;75.90;;;;;;5053075;28;20542;-91
2022/07/01 13:03:33;;;;;;;14.50;3.93;;;21.40;78.00;;;;;;5051135;28;20200;-90